Coffs Harbour, Australia
Current Conditions -  °F | °C
As of 10:30 AM on Wednesday 26 Nov 2014 (Local Time) from YCFS Reporting Station
Overcast Overcast  
Wind Chill: 70°   Ceiling: 1400
Heat Index: 70°   Visibility: 6mi
Dew Point: 68°   Wind: 9mph
Humidity: 94%   Direction: 240°WSW
Pressure: 30.06"   Gusts: NA
Location:  30.28°S, 153.13°E
Report Text: YCFS 252330Z AUTO 24008KT 9999 // OVC014 21/20 Q1018
Loading
Personal Weather Stations






























Interactive Weather Map New forecast layout! Learn more

10-Day Weather Forecast

Advertisements
Track Severe Weather on mobile